X  Luk Metar data     LHBP Budapest Liszt Ferenc International Airport
Temperatur
15°C Temperatur
9°C Duggpunkt
68% Fugtighed



Vind
5 KM/T
3 MPT
1 M/S
3 KNOB



170°
S
Nuværende forhold

Klart Klart
Tryk 1009.82 (hPa) - 29.82 (inHg)
Sigt 6 (mil) - 9.7 (km)
Lufthavn
Lufthavnskode LHBP

Lokation: Budapest Liszt Ferenc International Airport
Afstand: 14 (km)

Metar:
LHBP 150600Z 17003KT 130V210 CAVOK 15/09 Q1010 NOSIG

Tid: 2024-04-15 08:00 CEST